Accueil
METAR-TAF:

METAR-TAF

Aéroports :

Aérodrome de Fort-Dauphin

Fort-Dauphin, Madagascar

latitude: 25-02S, longitude: 046-57E, altitude: 8 m

Observation

Le bulletin a été fait il y a 18 minutes, à 10:00 UTC
Vent 16 kt de est
Température 26°C
Humidité 74%
Pression 1019 hPa
Visibilité 10 km ou plus
Quelques nuages à une hauteur de 2000 ft

METAR: FMSD 051000Z 08016KT 9999 FEW020 26/21 Q1019

Heure: 13:18 (10:18 UTC)

Prévision

Le bulletin a été fait il y a 5 heures et 18 minutes, à 05:00 UTC
Prévision valable du 05 à 06 UTC au 06 à 06 UTC
Vent 15 kt de est/nord-est
Visibilité 10 km ou plus
Quelques nuages à une hauteur de 1600 ft
Nuages épars à une hauteur de 3300 ft
Probabilité 30% :
Temporairement
du 05 à 20 UTC au 06 à 06 UTC
Visibilité: 4500 m
averses de pluie

TAF: FMSD 050500Z 0506/0606 06015KT 9999 FEW016 SCT033 PROB30 TEMPO 0520/0606 4500 SHRA

Observations et prévisions météorologiques de plus de 4000 aéroports (messages METAR et TAF).

Les stations disponibles sont représentées par des disques jaunes et rouges sur la carte.

Passer la souris dessus pour voir le nom de la station.

Cliquer dessus pour voir les observations et prévisions météorologiques.

Pour changer de carte: cliquez sur les boutons verts avec une croix noire pour zoomer, sur le bouton vert avec un tiret pour effectuer un zoom arrière, ou sur les flèches vertes pour les cartes adjacentes.


METAR-TAF: